Time;durP1;ratioP1;P1;durP2;ratioP2;P2;SDS_P1;SDS_P2;PMS_P1;PMS_P2;Temp;Humidity;BMP_temperature;BMP_pressure;BME280_temperature;BME280_humidity;BME280_pressure;Samples;Min_cycle;Max_cycle;Signal;HPM_P1;HPM_P2
2023/03/05 00:02:04;;;;;;;;;;;13.00;86.80;;;;;;5089345;28;19912;-15
2023/03/05 00:04:29;;;;;;;;;;;13.00;86.10;;;;;;5088076;28;19913;-15
2023/03/05 00:06:55;;;;;;;;;;;13.00;86.10;;;;;;5088075;28;19939;-17
2023/03/05 00:09:20;;;;;;;;;;;13.00;86.40;;;;;;5089422;28;20232;-15
2023/03/05 00:11:47;;;;;;;;;;;13.00;86.00;;;;;;5088167;27;19952;-15
2023/03/05 00:14:13;;;;;;;;;;;13.00;86.00;;;;;;5086744;28;20197;-15
2023/03/05 00:16:39;;;;;;;;;;;13.00;86.50;;;;;;5085812;28;20270;-16
2023/03/05 00:19:04;;;;;;;;;;;13.00;85.90;;;;;;5087981;28;19908;-13
2023/03/05 00:21:35;;;;;;;;;;;13.00;85.90;;;;;;5088056;28;20067;-14
2023/03/05 00:24:02;;;;;;;;;;;13.00;85.90;;;;;;5088128;28;20246;-17
2023/03/05 00:26:28;;;;;;;;;;;13.00;85.90;;;;;;5089984;28;20117;-17
2023/03/05 00:28:55;;;;;;;;;;;13.00;85.80;;;;;;5089676;28;19920;-17
2023/03/05 00:31:22;;;;;;;;;;;13.00;85.70;;;;;;5089846;28;19908;-16
2023/03/05 00:33:51;;;;;;;;;;;13.00;85.80;;;;;;5089093;28;19909;-16
2023/03/05 00:36:17;;;;;;;;;;;13.00;85.70;;;;;;5088838;28;19944;-17
2023/03/05 00:38:42;;;;;;;;;;;13.00;85.70;;;;;;5088742;28;20008;-14
2023/03/05 00:41:08;;;;;;;;;;;13.00;85.70;;;;;;5089418;28;20217;-14
2023/03/05 00:43:34;;;;;;;;;;;12.90;85.60;;;;;;5089348;28;20199;-13
2023/03/05 00:45:59;;;;;;;;;;;12.90;85.60;;;;;;5088125;28;19939;-15
2023/03/05 00:48:25;;;;;;;;;;;12.90;85.60;;;;;;5087671;28;20126;-14
2023/03/05 00:50:51;;;;;;;;;;;12.90;85.60;;;;;;5088656;28;19957;-15
2023/03/05 00:53:16;;;;;;;;;;;12.90;85.50;;;;;;5087543;28;20324;-17
2023/03/05 00:55:42;;;;;;;;;;;12.90;85.40;;;;;;5079093;28;19908;-17
2023/03/05 00:58:08;;;;;;;;;;;12.90;85.50;;;;;;5074937;28;20197;-15
2023/03/05 01:00:34;;;;;;;;;;;12.90;85.50;;;;;;5076568;28;19924;-17
2023/03/05 01:02:59;;;;;;;;;;;12.90;85.50;;;;;;5076231;28;19994;-15
2023/03/05 01:05:25;;;;;;;;;;;12.90;85.50;;;;;;5076636;28;19908;-16
2023/03/05 01:07:54;;;;;;;;;;;12.90;85.50;;;;;;5075511;28;19909;-15
2023/03/05 01:10:20;;;;;;;;;;;12.90;85.40;;;;;;5076926;28;19915;-17
2023/03/05 01:12:46;;;;;;;;;;;12.90;85.40;;;;;;5075569;28;20003;-16
2023/03/05 01:15:11;;;;;;;;;;;12.90;85.40;;;;;;5075794;28;19909;-17
2023/03/05 01:17:37;;;;;;;;;;;12.90;85.40;;;;;;5074857;28;19913;-14
2023/03/05 01:20:03;;;;;;;;;;;12.90;85.30;;;;;;5073894;28;19919;-16
2023/03/05 01:22:29;;;;;;;;;;;12.90;85.40;;;;;;5074358;28;19908;-19
2023/03/05 01:24:55;;;;;;;;;;;12.90;85.40;;;;;;5073864;28;19913;-16
2023/03/05 01:27:21;;;;;;;;;;;12.90;85.40;;;;;;5074523;28;19935;-15
2023/03/05 01:29:46;;;;;;;;;;;12.90;85.40;;;;;;5076526;28;20237;-15
2023/03/05 01:32:12;;;;;;;;;;;12.90;85.40;;;;;;5076106;28;19908;-14
2023/03/05 01:34:38;;;;;;;;;;;12.90;85.40;;;;;;5076384;28;19930;-14
2023/03/05 01:37:03;;;;;;;;;;;12.90;85.30;;;;;;5074351;28;19921;-17
2023/03/05 01:39:29;;;;;;;;;;;12.90;85.30;;;;;;5074116;28;19943;-15
2023/03/05 01:41:55;;;;;;;;;;;12.90;85.40;;;;;;5073348;28;19908;-18
2023/03/05 01:44:25;;;;;;;;;;;12.90;85.30;;;;;;5073358;28;19960;-15
2023/03/05 01:46:51;;;;;;;;;;;12.90;85.40;;;;;;5073442;28;20015;-15
2023/03/05 01:49:19;;;;;;;;;;;12.90;85.40;;;;;;5073651;28;20007;-15
2023/03/05 01:51:57;;;;;;;;;;;12.90;85.30;;;;;;5075354;28;19908;-15
2023/03/05 01:54:25;;;;;;;;;;;12.90;85.40;;;;;;5076530;28;20026;-14
2023/03/05 01:56:52;;;;;;;;;;;12.90;85.30;;;;;;5075003;28;19918;-15
2023/03/05 01:59:17;;;;;;;;;;;12.90;85.30;;;;;;5074484;28;19920;-14
2023/03/05 02:01:44;;;;;;;;;;;12.90;85.30;;;;;;5074161;28;19909;-17
2023/03/05 02:04:13;;;;;;;;;;;12.90;85.40;;;;;;5075215;28;20013;-18
2023/03/05 02:06:40;;;;;;;;;;;12.90;85.30;;;;;;5072657;28;19993;-15
2023/03/05 02:09:05;;;;;;;;;;;12.80;85.30;;;;;;5075715;28;19915;-20
2023/03/05 02:11:31;;;;;;;;;;;12.90;85.30;;;;;;5074709;28;19908;-16
2023/03/05 02:13:57;;;;;;;;;;;12.90;85.30;;;;;;5074323;28;20272;-15
2023/03/05 02:16:23;;;;;;;;;;;12.90;85.40;;;;;;5074686;28;19970;-16
2023/03/05 02:18:48;;;;;;;;;;;12.80;85.30;;;;;;5077321;28;19908;-17
2023/03/05 02:21:25;;;;;;;;;;;12.80;85.30;;;;;;5076225;28;20138;-16
2023/03/05 02:23:50;;;;;;;;;;;12.80;85.30;;;;;;5076601;28;19973;-15
2023/03/05 02:26:17;;;;;;;;;;;12.80;85.30;;;;;;5075581;28;19916;-18
2023/03/05 02:28:47;;;;;;;;;;;12.80;85.30;;;;;;5075768;28;19908;-15
2023/03/05 02:31:14;;;;;;;;;;;12.80;85.30;;;;;;5076288;28;19916;-15
2023/03/05 02:33:41;;;;;;;;;;;12.80;85.30;;;;;;5076568;28;19917;-16
2023/03/05 02:36:07;;;;;;;;;;;12.80;85.30;;;;;;5076573;28;19909;-16
2023/03/05 02:38:33;;;;;;;;;;;12.80;85.30;;;;;;5075365;28;19977;-16
2023/03/05 02:40:58;;;;;;;;;;;12.80;85.20;;;;;;5069097;28;20155;-14
2023/03/05 02:43:24;;;;;;;;;;;12.80;85.30;;;;;;5071748;28;20190;-16
2023/03/05 02:45:49;;;;;;;;;;;12.80;85.30;;;;;;5076143;28;19920;-23
2023/03/05 02:48:15;;;;;;;;;;;12.80;85.30;;;;;;5074371;28;19960;-13
2023/03/05 02:50:40;;;;;;;;;;;12.80;85.30;;;;;;5074661;28;19919;-15
2023/03/05 02:53:06;;;;;;;;;;;12.80;85.30;;;;;;5075196;28;19909;-19
2023/03/05 02:55:32;;;;;;;;;;;12.80;85.30;;;;;;5074747;28;19935;-17
2023/03/05 02:57:57;;;;;;;;;;;12.80;85.30;;;;;;5075385;28;19916;-17
2023/03/05 03:00:23;;;;;;;;;;;12.80;85.30;;;;;;5075451;28;19958;-17
2023/03/05 03:02:48;;;;;;;;;;;12.80;85.30;;;;;;5075215;28;20218;-14
2023/03/05 03:05:14;;;;;;;;;;;12.80;85.30;;;;;;5073515;28;19918;-14
2023/03/05 03:07:40;;;;;;;;;;;12.80;85.40;;;;;;5073118;28;19974;-17
2023/03/05 03:10:06;;;;;;;;;;;12.80;85.40;;;;;;5072658;28;19909;-16
2023/03/05 03:12:35;;;;;;;;;;;12.80;85.50;;;;;;5074907;28;19916;-16
2023/03/05 03:15:01;;;;;;;;;;;12.80;85.40;;;;;;5076017;28;19913;-15
2023/03/05 03:17:26;;;;;;;;;;;12.80;85.40;;;;;;5076452;28;19916;-14
2023/03/05 03:19:52;;;;;;;;;;;12.80;85.40;;;;;;5075851;28;19955;-14
2023/03/05 03:22:17;;;;;;;;;;;12.80;85.40;;;;;;5076907;28;19991;-17
2023/03/05 03:24:43;;;;;;;;;;;12.80;85.40;;;;;;5076408;28;19975;-14
2023/03/05 03:27:09;;;;;;;;;;;12.80;85.30;;;;;;5076155;28;19974;-17
2023/03/05 03:29:35;;;;;;;;;;;12.80;85.40;;;;;;5076580;28;19915;-14
2023/03/05 03:32:01;;;;;;;;;;;12.80;85.40;;;;;;5076861;28;19999;-14
2023/03/05 03:34:26;;;;;;;;;;;12.80;85.30;;;;;;5076029;28;20547;-15
2023/03/05 03:36:53;;;;;;;;;;;12.80;85.40;;;;;;5075129;28;19919;-13
2023/03/05 03:39:19;;;;;;;;;;;12.80;85.30;;;;;;5076817;28;20062;-13
2023/03/05 03:41:46;;;;;;;;;;;12.80;85.40;;;;;;5076660;28;20031;-15
2023/03/05 03:44:12;;;;;;;;;;;12.80;85.40;;;;;;5074437;28;19923;-18
2023/03/05 03:46:38;;;;;;;;;;;12.80;85.40;;;;;;5075266;28;19909;-14
2023/03/05 03:49:04;;;;;;;;;;;12.80;85.50;;;;;;5074813;28;20029;-17
2023/03/05 03:51:29;;;;;;;;;;;12.80;85.50;;;;;;5074495;28;19957;-13
2023/03/05 03:53:55;;;;;;;;;;;12.80;85.40;;;;;;5074602;28;20014;-13
2023/03/05 03:56:20;;;;;;;;;;;12.70;85.30;;;;;;5074805;28;19909;-16
2023/03/05 03:58:48;;;;;;;;;;;12.80;85.70;;;;;;5074890;28;20178;-15
2023/03/05 04:01:14;;;;;;;;;;;12.70;85.30;;;;;;5074678;28;19931;-17
2023/03/05 04:03:40;;;;;;;;;;;12.70;85.40;;;;;;5075024;28;20142;-14
2023/03/05 04:06:06;;;;;;;;;;;12.80;85.50;;;;;;5072983;28;20193;-15
2023/03/05 04:08:31;;;;;;;;;;;12.70;85.30;;;;;;5075335;28;19909;-17
2023/03/05 04:10:59;;;;;;;;;;;12.80;85.40;;;;;;5074392;28;19919;-15
2023/03/05 04:13:24;;;;;;;;;;;12.80;85.50;;;;;;5074562;28;20218;-15
2023/03/05 04:15:50;;;;;;;;;;;12.70;85.30;;;;;;5074329;28;19909;-16
2023/03/05 04:18:16;;;;;;;;;;;12.70;85.30;;;;;;5073380;28;20278;-16
2023/03/05 04:20:41;;;;;;;;;;;12.70;85.40;;;;;;5074513;28;19909;-16
2023/03/05 04:23:07;;;;;;;;;;;12.80;85.40;;;;;;5072241;28;19920;-17
2023/03/05 04:25:32;;;;;;;;;;;12.80;85.40;;;;;;5073045;28;19970;-14
2023/03/05 04:27:58;;;;;;;;;;;12.80;85.40;;;;;;5072934;28;19908;-17
2023/03/05 04:30:23;;;;;;;;;;;12.70;85.30;;;;;;5073947;28;20228;-15
2023/03/05 04:32:49;;;;;;;;;;;12.70;85.30;;;;;;5076436;28;19913;-17
2023/03/05 04:35:14;;;;;;;;;;;12.70;85.30;;;;;;5077469;28;19912;-17
2023/03/05 04:37:40;;;;;;;;;;;12.70;85.30;;;;;;5078838;28;20268;-18
2023/03/05 04:40:06;;;;;;;;;;;12.70;85.30;;;;;;5078104;28;19938;-17
2023/03/05 04:42:32;;;;;;;;;;;12.70;85.30;;;;;;5080228;28;19908;-16
2023/03/05 04:44:57;;;;;;;;;;;12.70;85.30;;;;;;5080490;28;19916;-17
2023/03/05 04:47:23;;;;;;;;;;;12.70;85.30;;;;;;5080842;28;19909;-16
2023/03/05 04:49:49;;;;;;;;;;;12.70;85.30;;;;;;5080823;28;19965;-13
2023/03/05 04:52:15;;;;;;;;;;;12.70;85.30;;;;;;5080352;28;20052;-16
2023/03/05 04:54:40;;;;;;;;;;;12.70;85.30;;;;;;5080464;28;20365;-16
2023/03/05 04:57:06;;;;;;;;;;;12.70;85.30;;;;;;5080824;28;19915;-17
2023/03/05 04:59:32;;;;;;;;;;;12.70;85.40;;;;;;5080891;28;19908;-17
2023/03/05 05:01:58;;;;;;;;;;;12.70;85.30;;;;;;5080781;28;19909;-16
2023/03/05 05:04:23;;;;;;;;;;;12.70;85.30;;;;;;5079837;28;20018;-17
2023/03/05 05:06:49;;;;;;;;;;;12.70;85.40;;;;;;5080843;28;20003;-16
2023/03/05 05:09:14;;;;;;;;;;;12.70;85.40;;;;;;5080531;28;19999;-17
2023/03/05 05:11:40;;;;;;;;;;;12.70;85.40;;;;;;5080373;28;20164;-16
2023/03/05 05:14:06;;;;;;;;;;;12.70;85.40;;;;;;5080744;28;19919;-19
2023/03/05 05:16:31;;;;;;;;;;;12.70;85.50;;;;;;5080548;28;20178;-17
2023/03/05 05:18:57;;;;;;;;;;;12.70;85.40;;;;;;5081044;28;19909;-15
2023/03/05 05:21:22;;;;;;;;;;;12.70;85.50;;;;;;5080153;28;19909;-16
2023/03/05 05:23:50;;;;;;;;;;;12.70;85.40;;;;;;5080738;28;19977;-18
2023/03/05 05:26:16;;;;;;;;;;;12.70;85.50;;;;;;5080906;28;19908;-15
2023/03/05 05:28:42;;;;;;;;;;;12.70;85.50;;;;;;5080408;28;19920;-17
2023/03/05 05:31:08;;;;;;;;;;;12.70;85.50;;;;;;5080486;28;19908;-13
2023/03/05 05:33:34;;;;;;;;;;;12.70;85.50;;;;;;5080519;28;19970;-17
2023/03/05 05:36:01;;;;;;;;;;;12.70;85.50;;;;;;5079868;28;19909;-16
2023/03/05 05:38:27;;;;;;;;;;;12.70;85.50;;;;;;5079111;28;19909;-17
2023/03/05 05:40:52;;;;;;;;;;;12.70;85.50;;;;;;5079856;28;19909;-15
2023/03/05 05:43:18;;;;;;;;;;;12.70;85.50;;;;;;5079914;28;20185;-17
2023/03/05 05:45:52;;;;;;;;;;;12.70;85.50;;;;;;5079701;28;19916;-15
2023/03/05 05:48:18;;;;;;;;;;;12.70;85.60;;;;;;5079375;28;19956;-17
2023/03/05 05:50:43;;;;;;;;;;;12.70;85.60;;;;;;5079551;28;19966;-14
2023/03/05 05:53:09;;;;;;;;;;;12.70;85.50;;;;;;5078885;28;19995;-16
2023/03/05 05:55:34;;;;;;;;;;;12.70;85.60;;;;;;5078837;28;20057;-17
2023/03/05 05:58:00;;;;;;;;;;;12.70;85.60;;;;;;5079265;28;19919;-16
2023/03/05 06:00:26;;;;;;;;;;;12.70;85.60;;;;;;5078277;28;19908;-14
2023/03/05 06:02:51;;;;;;;;;;;12.70;85.60;;;;;;5079132;28;19917;-11
2023/03/05 06:05:23;;;;;;;;;;;12.70;85.60;;;;;;5079873;28;19912;-14
2023/03/05 06:07:48;;;;;;;;;;;12.70;85.70;;;;;;5079292;28;19908;-16
2023/03/05 06:10:14;;;;;;;;;;;12.70;85.70;;;;;;5079259;28;19913;-16
2023/03/05 06:12:39;;;;;;;;;;;12.70;85.70;;;;;;5078594;28;19920;-14
2023/03/05 06:15:36;;;;;;;;;;;12.70;85.60;;;;;;5078345;28;19908;-15
2023/03/05 06:18:02;;;;;;;;;;;12.70;85.60;;;;;;5078816;28;19908;-16
2023/03/05 06:20:27;;;;;;;;;;;12.70;85.50;;;;;;5078678;28;19970;-14
2023/03/05 06:22:53;;;;;;;;;;;12.70;85.40;;;;;;5078823;28;20192;-14
2023/03/05 06:25:19;;;;;;;;;;;12.70;85.50;;;;;;5079095;28;19909;-13
2023/03/05 06:27:44;;;;;;;;;;;12.70;85.50;;;;;;5077874;28;19948;-17
2023/03/05 06:30:10;;;;;;;;;;;12.70;85.50;;;;;;5077706;28;19916;-16
2023/03/05 06:32:36;;;;;;;;;;;12.70;85.60;;;;;;5078403;28;19951;-16
2023/03/05 06:35:01;;;;;;;;;;;12.70;85.70;;;;;;5078066;28;19926;-15
2023/03/05 06:37:28;;;;;;;;;;;12.70;85.80;;;;;;5077297;28;19909;-17
2023/03/05 06:39:54;;;;;;;;;;;12.70;85.80;;;;;;5078569;28;19962;-15
2023/03/05 06:42:19;;;;;;;;;;;12.70;86.40;;;;;;5078319;28;19909;-14
2023/03/05 06:44:45;;;;;;;;;;;12.70;85.70;;;;;;5078416;28;19920;-16
2023/03/05 06:47:11;;;;;;;;;;;12.70;85.70;;;;;;5078063;28;19920;-13
2023/03/05 06:49:37;;;;;;;;;;;12.70;85.70;;;;;;5078528;28;19909;-17
2023/03/05 06:52:03;;;;;;;;;;;12.70;85.70;;;;;;5077879;28;19916;-17
2023/03/05 06:54:28;;;;;;;;;;;12.70;85.60;;;;;;5076587;28;19909;-16
2023/03/05 06:56:54;;;;;;;;;;;12.70;85.60;;;;;;5078108;28;20448;-17
2023/03/05 06:59:20;;;;;;;;;;;12.70;85.50;;;;;;5077843;28;20003;-15
2023/03/05 07:01:46;;;;;;;;;;;12.70;85.50;;;;;;5077699;28;20198;-17
2023/03/05 07:04:12;;;;;;;;;;;12.80;85.50;;;;;;5077705;28;20003;-16
2023/03/05 07:06:38;;;;;;;;;;;12.80;85.40;;;;;;5077054;28;19908;-13
2023/03/05 07:09:05;;;;;;;;;;;12.80;85.40;;;;;;5077086;28;19908;-15
2023/03/05 07:11:31;;;;;;;;;;;12.80;85.20;;;;;;5077124;28;19952;-17
2023/03/05 07:13:57;;;;;;;;;;;12.80;85.00;;;;;;5077674;28;20041;-15
2023/03/05 07:16:23;;;;;;;;;;;12.90;84.90;;;;;;5077232;28;19952;-14
2023/03/05 07:18:49;;;;;;;;;;;12.90;85.00;;;;;;5077303;28;19908;-16
2023/03/05 07:21:20;;;;;;;;;;;12.80;85.00;;;;;;5077149;28;19965;-16
2023/03/05 07:23:57;;;;;;;;;;;12.90;85.00;;;;;;5077949;28;19908;-16
2023/03/05 07:26:23;;;;;;;;;;;12.90;85.10;;;;;;5076668;28;19909;-16
2023/03/05 07:28:49;;;;;;;;;;;12.90;85.20;;;;;;5076826;28;19909;-17
2023/03/05 07:31:17;;;;;;;;;;;12.90;85.20;;;;;;5076709;28;19939;-14
2023/03/05 07:33:44;;;;;;;;;;;12.90;85.30;;;;;;5077136;28;20300;-15
2023/03/05 07:36:10;;;;;;;;;;;12.90;85.10;;;;;;5077033;28;20147;-15
2023/03/05 07:38:35;;;;;;;;;;;12.90;84.90;;;;;;5077141;28;19938;-17
2023/03/05 07:41:02;;;;;;;;;;;13.00;84.90;;;;;;5077942;28;19908;-17
2023/03/05 07:43:40;;;;;;;;;;;13.00;84.70;;;;;;5076824;28;20011;-14
2023/03/05 07:46:07;;;;;;;;;;;13.00;84.50;;;;;;5076953;28;19913;-16
2023/03/05 07:48:33;;;;;;;;;;;13.10;84.20;;;;;;5077383;28;19908;-17
2023/03/05 07:51:09;;;;;;;;;;;13.00;84.10;;;;;;5076492;28;19947;-15
2023/03/05 07:53:35;;;;;;;;;;;13.00;84.30;;;;;;5076986;28;20282;-17
2023/03/05 07:56:01;;;;;;;;;;;13.00;84.40;;;;;;5076620;28;19916;-16
2023/03/05 07:58:27;;;;;;;;;;;13.00;84.40;;;;;;5078196;28;20002;-17
2023/03/05 08:00:52;;;;;;;;;;;13.00;84.30;;;;;;5078150;28;20197;-16
2023/03/05 08:03:18;;;;;;;;;;;13.00;84.30;;;;;;5076551;28;19981;-16
2023/03/05 08:05:43;;;;;;;;;;;13.00;84.30;;;;;;5078444;28;20260;-15
2023/03/05 08:08:09;;;;;;;;;;;13.00;84.30;;;;;;5080177;28;20336;-17
2023/03/05 08:10:35;;;;;;;;;;;13.00;84.10;;;;;;5080377;28;19912;-15
2023/03/05 08:13:02;;;;;;;;;;;13.10;84.30;;;;;;5081566;28;20362;-17
2023/03/05 08:15:30;;;;;;;;;;;13.10;84.30;;;;;;5080140;28;20186;-15
2023/03/05 08:17:56;;;;;;;;;;;13.10;84.20;;;;;;5081095;28;19919;-17
2023/03/05 08:20:21;;;;;;;;;;;13.10;84.10;;;;;;5080478;28;19909;-16
2023/03/05 08:22:47;;;;;;;;;;;13.10;83.70;;;;;;5080887;28;19909;-14
2023/03/05 08:25:12;;;;;;;;;;;13.20;83.70;;;;;;5080915;28;19913;-15
2023/03/05 08:27:39;;;;;;;;;;;13.20;83.60;;;;;;5080440;28;19966;-15
2023/03/05 08:30:05;;;;;;;;;;;13.20;83.30;;;;;;5079952;28;19916;-15
2023/03/05 08:32:32;;;;;;;;;;;13.20;83.20;;;;;;5079652;28;19908;-14
2023/03/05 08:34:57;;;;;;;;;;;13.20;83.20;;;;;;5079904;28;20390;-18
2023/03/05 08:37:23;;;;;;;;;;;13.20;83.40;;;;;;5079122;28;20485;-14
2023/03/05 08:39:49;;;;;;;;;;;13.10;83.70;;;;;;5080528;28;19916;-18
2023/03/05 08:42:14;;;;;;;;;;;13.10;84.10;;;;;;5079958;28;19954;-16
2023/03/05 08:44:40;;;;;;;;;;;13.10;84.30;;;;;;5079119;28;20274;-12
2023/03/05 08:47:06;;;;;;;;;;;13.10;84.30;;;;;;5079377;28;20266;-18
2023/03/05 08:49:31;;;;;;;;;;;13.10;84.30;;;;;;5079820;28;19908;-14
2023/03/05 08:51:57;;;;;;;;;;;13.10;84.50;;;;;;5078913;28;19967;-17
2023/03/05 08:54:23;;;;;;;;;;;13.10;84.50;;;;;;5078791;28;20122;-16
2023/03/05 08:56:49;;;;;;;;;;;13.10;84.50;;;;;;5078806;28;19993;-15
2023/03/05 08:59:15;;;;;;;;;;;13.10;84.50;;;;;;5079530;28;19919;-16
2023/03/05 09:01:40;;;;;;;;;;;13.10;84.50;;;;;;5078652;28;19920;-14
2023/03/05 09:04:06;;;;;;;;;;;13.10;84.50;;;;;;5078399;28;20007;-16
2023/03/05 09:06:33;;;;;;;;;;;13.10;84.60;;;;;;5079071;28;19912;-16
2023/03/05 09:08:58;;;;;;;;;;;13.10;85.00;;;;;;5078392;28;19958;-16
2023/03/05 09:11:34;;;;;;;;;;;13.10;85.30;;;;;;5079588;28;19908;-18
2023/03/05 09:14:03;;;;;;;;;;;13.10;85.60;;;;;;5079524;28;19919;-19
2023/03/05 09:16:29;;;;;;;;;;;13.10;86.00;;;;;;5079369;28;20216;-16
2023/03/05 09:18:54;;;;;;;;;;;13.10;86.30;;;;;;5078392;28;19909;-15
2023/03/05 09:21:21;;;;;;;;;;;13.10;86.50;;;;;;5078842;28;19916;-16
2023/03/05 09:23:47;;;;;;;;;;;13.10;86.90;;;;;;5079252;28;19919;-17
2023/03/05 09:26:14;;;;;;;;;;;13.10;87.10;;;;;;5077764;28;19908;-18
2023/03/05 09:28:40;;;;;;;;;;;13.10;87.70;;;;;;5078175;28;19919;-15
2023/03/05 09:31:06;;;;;;;;;;;13.10;88.40;;;;;;5077510;28;19912;-16
2023/03/05 09:33:32;;;;;;;;;;;13.20;88.00;;;;;;5078733;28;20282;-16
2023/03/05 09:35:59;;;;;;;;;;;13.20;88.10;;;;;;5078828;28;19909;-17
2023/03/05 09:38:24;;;;;;;;;;;13.30;88.10;;;;;;5077406;28;20013;-17
2023/03/05 09:41:06;;;;;;;;;;;13.30;88.10;;;;;;5078231;28;19966;-15
2023/03/05 09:43:53;;;;;;;;;;;13.30;88.60;;;;;;5076798;28;20058;-17
2023/03/05 09:46:25;;;;;;;;;;;13.30;88.60;;;;;;5077878;28;19909;-15
2023/03/05 09:48:52;;;;;;;;;;;13.30;88.80;;;;;;5077692;28;19954;-17
2023/03/05 09:51:24;;;;;;;;;;;13.30;88.90;;;;;;5077477;28;19951;-15
2023/03/05 09:53:59;;;;;;;;;;;13.30;89.20;;;;;;5075952;28;19916;-16
2023/03/05 09:56:27;;;;;;;;;;;13.30;89.20;;;;;;5077738;28;20428;-14
2023/03/05 09:58:53;;;;;;;;;;;13.20;89.50;;;;;;5077326;28;19966;-15
2023/03/05 10:01:21;;;;;;;;;;;13.30;89.50;;;;;;5077673;28;19920;-18
2023/03/05 10:03:56;;;;;;;;;;;13.30;89.50;;;;;;5076998;28;20343;-17
2023/03/05 10:06:30;;;;;;;;;;;13.30;89.70;;;;;;5077989;28;19956;-15
2023/03/05 10:09:02;;;;;;;;;;;13.40;89.50;;;;;;5078100;28;19999;-16
2023/03/05 10:11:39;;;;;;;;;;;13.40;89.60;;;;;;5077196;28;20394;-16
2023/03/05 10:14:16;;;;;;;;;;;13.50;89.40;;;;;;5078059;28;19908;-15
2023/03/05 10:17:01;;;;;;;;;;;13.50;89.00;;;;;;5078499;28;19920;-16
2023/03/05 10:19:44;;;;;;;;;;;13.50;88.70;;;;;;5078036;28;19974;-15
2023/03/05 10:22:29;;;;;;;;;;;13.60;88.40;;;;;;5078032;28;19908;-15
2023/03/05 10:25:13;;;;;;;;;;;13.70;87.80;;;;;;5077246;28;19967;-15
2023/03/05 10:27:48;;;;;;;;;;;13.90;87.10;;;;;;5077319;28;20074;-16
2023/03/05 10:30:32;;;;;;;;;;;13.90;86.50;;;;;;5077160;28;19913;-18
2023/03/05 10:33:17;;;;;;;;;;;13.90;86.10;;;;;;5077410;28;19919;-17
2023/03/05 10:35:42;;;;;;;;;;;14.00;85.90;;;;;;5076863;28;19965;-16
2023/03/05 10:38:15;;;;;;;;;;;14.00;85.60;;;;;;5077678;28;19908;-17
2023/03/05 10:40:41;;;;;;;;;;;14.10;85.40;;;;;;5075456;28;19909;-16
2023/03/05 10:43:17;;;;;;;;;;;14.10;85.60;;;;;;5075677;28;19923;-14
2023/03/05 10:45:45;;;;;;;;;;;14.10;85.60;;;;;;5077105;28;19919;-16
2023/03/05 10:48:22;;;;;;;;;;;14.10;85.90;;;;;;5075930;28;19915;-15
2023/03/05 10:50:59;;;;;;;;;;;14.10;86.00;;;;;;5076897;28;19919;-16
2023/03/05 10:53:48;;;;;;;;;;;14.10;86.00;;;;;;5076941;28;19908;-17
2023/03/05 10:56:14;;;;;;;;;;;14.10;86.00;;;;;;5073715;28;20042;-18
2023/03/05 10:58:40;;;;;;;;;;;14.10;85.90;;;;;;5076672;28;19944;-18
2023/03/05 11:01:11;;;;;;;;;;;14.20;85.80;;;;;;5077830;28;19997;-14
2023/03/05 11:03:52;;;;;;;;;;;14.20;85.80;;;;;;5076996;28;19913;-16
2023/03/05 11:06:36;;;;;;;;;;;14.20;85.80;;;;;;5077840;28;19962;-16
2023/03/05 11:09:16;;;;;;;;;;;14.20;87.00;;;;;;5077120;28;20299;-15
2023/03/05 11:11:42;;;;;;;;;;;14.40;90.60;;;;;;5076895;28;19972;-16
2023/03/05 11:14:21;;;;;;;;;;;14.60;90.60;;;;;;5077123;28;20321;-15
2023/03/05 11:16:49;;;;;;;;;;;14.70;90.00;;;;;;5076796;28;19970;-15
2023/03/05 11:19:15;;;;;;;;;;;14.70;90.40;;;;;;5076524;28;20301;-16
2023/03/05 11:22:00;;;;;;;;;;;14.80;90.60;;;;;;5076739;28;19918;-15
2023/03/05 11:24:25;;;;;;;;;;;14.80;90.20;;;;;;5076231;28;19923;-16
2023/03/05 11:26:52;;;;;;;;;;;14.80;89.60;;;;;;5077397;28;19908;-16
2023/03/05 11:29:26;;;;;;;;;;;14.70;89.20;;;;;;5076105;28;19912;-15
2023/03/05 11:32:10;;;;;;;;;;;14.60;89.60;;;;;;5077245;28;19951;-16
2023/03/05 11:34:36;;;;;;;;;;;14.60;88.80;;;;;;5076993;28;20314;-18
2023/03/05 11:37:03;;;;;;;;;;;14.50;88.40;;;;;;5077427;28;20274;-18
2023/03/05 11:39:31;;;;;;;;;;;14.50;88.40;;;;;;5075820;28;20388;-16
2023/03/05 11:41:57;;;;;;;;;;;14.40;88.20;;;;;;5076229;28;19915;-14
2023/03/05 11:44:28;;;;;;;;;;;14.40;88.60;;;;;;5075796;28;19916;-15
2023/03/05 11:47:00;;;;;;;;;;;14.40;87.80;;;;;;5075017;28;19994;-18
2023/03/05 11:49:27;;;;;;;;;;;14.40;87.50;;;;;;5075943;28;19904;-14
2023/03/05 11:52:13;;;;;;;;;;;14.40;87.10;;;;;;5076087;28;19959;-18
2023/03/05 11:54:51;;;;;;;;;;;14.50;86.80;;;;;;5073794;28;20014;-16
2023/03/05 11:57:17;;;;;;;;;;;14.50;86.40;;;;;;5075369;28;19913;-17
2023/03/05 11:59:42;;;;;;;;;;;14.50;86.00;;;;;;5074717;28;19908;-14
2023/03/05 12:02:19;;;;;;;;;;;14.50;85.70;;;;;;5075274;28;19923;-19
2023/03/05 12:04:45;;;;;;;;;;;14.50;85.40;;;;;;5076056;28;19913;-17
2023/03/05 12:07:12;;;;;;;;;;;14.50;85.10;;;;;;5075976;28;19917;-13
2023/03/05 12:09:51;;;;;;;;;;;14.50;84.80;;;;;;5075471;28;19908;-17
2023/03/05 12:12:34;;;;;;;;;;;14.50;84.70;;;;;;5074912;28;20436;-19
2023/03/05 12:15:00;;;;;;;;;;;14.60;84.60;;;;;;5075591;28;19909;-17
2023/03/05 12:17:44;;;;;;;;;;;14.60;84.40;;;;;;5075946;28;19923;-15
2023/03/05 12:20:28;;;;;;;;;;;14.60;84.20;;;;;;5075992;28;19931;-16
2023/03/05 12:22:54;;;;;;;;;;;14.60;83.90;;;;;;5075300;28;19924;-15
2023/03/05 12:25:26;;;;;;;;;;;14.60;83.60;;;;;;5076580;28;19912;-18
2023/03/05 12:27:52;;;;;;;;;;;14.70;83.40;;;;;;5076373;28;20471;-15
2023/03/05 12:30:46;;;;;;;;;;;14.70;83.00;;;;;;5075337;28;20007;-17
2023/03/05 12:33:32;;;;;;;;;;;14.80;82.80;;;;;;5040526;28;19920;-17
2023/03/05 12:36:24;;;;;;;;;;;14.90;82.50;;;;;;5074820;28;19919;-16
2023/03/05 12:38:50;;;;;;;;;;;14.90;82.00;;;;;;5073377;28;19908;-14
2023/03/05 12:41:22;;;;;;;;;;;15.00;81.60;;;;;;5075412;28;20377;-16
2023/03/05 12:44:22;;;;;;;;;;;15.00;81.40;;;;;;5055712;28;19920;-13
2023/03/05 12:47:16;;;;;;;;;;;15.00;81.30;;;;;;5055125;28;20332;-15
2023/03/05 12:49:43;;;;;;;;;;;15.00;81.20;;;;;;5055275;28;19909;-13
2023/03/05 12:52:23;;;;;;;;;;;15.00;81.10;;;;;;5056580;28;20337;-17
2023/03/05 12:55:14;;;;;;;;;;;15.00;81.00;;;;;;5058427;28;19909;-16
2023/03/05 12:57:41;;;;;;;;;;;15.10;81.00;;;;;;5058189;28;19916;-17
2023/03/05 13:00:13;;;;;;;;;;;15.10;80.70;;;;;;5057789;28;19920;-15
2023/03/05 13:02:41;;;;;;;;;;;15.10;80.50;;;;;;5058667;28;19909;-17
2023/03/05 13:05:17;;;;;;;;;;;15.20;80.40;;;;;;5059070;28;19917;-17
2023/03/05 13:07:42;;;;;;;;;;;15.20;80.30;;;;;;5059693;28;19948;-15
2023/03/05 13:10:20;;;;;;;;;;;15.20;80.00;;;;;;5058683;28;19952;-15
2023/03/05 13:12:51;;;;;;;;;;;15.20;79.90;;;;;;5058643;28;19909;-16
2023/03/05 13:15:21;;;;;;;;;;;15.20;79.80;;;;;;5058870;28;19920;-16
2023/03/05 13:17:57;;;;;;;;;;;15.20;79.60;;;;;;5059073;28;19913;-13
2023/03/05 13:20:27;;;;;;;;;;;15.20;79.60;;;;;;5056769;28;19909;-16
2023/03/05 13:23:11;;;;;;;;;;;15.20;79.50;;;;;;5057521;28;19916;-16
2023/03/05 13:25:37;;;;;;;;;;;15.20;79.50;;;;;;5057126;28;20455;-15
2023/03/05 13:28:03;;;;;;;;;;;15.20;79.40;;;;;;5057370;28;19908;-16
2023/03/05 13:30:29;;;;;;;;;;;15.20;79.30;;;;;;5057871;28;20494;-16
2023/03/05 13:32:57;;;;;;;;;;;15.20;79.90;;;;;;5057175;28;19909;-15
2023/03/05 13:35:24;;;;;;;;;;;15.20;79.30;;;;;;5057086;28;19919;-15
2023/03/05 13:37:49;;;;;;;;;;;15.20;79.30;;;;;;5057550;28;19920;-15
2023/03/05 13:40:18;;;;;;;;;;;15.20;79.40;;;;;;5056785;28;19909;-15
2023/03/05 13:42:43;;;;;;;;;;;15.20;79.60;;;;;;5055537;28;20007;-18
2023/03/05 13:45:21;;;;;;;;;;;15.20;79.60;;;;;;5056217;28;20014;-17
2023/03/05 13:47:51;;;;;;;;;;;15.10;79.80;;;;;;5058445;28;19923;-15
2023/03/05 13:50:21;;;;;;;;;;;15.10;79.90;;;;;;5057242;28;19912;-15
2023/03/05 13:52:47;;;;;;;;;;;15.10;80.10;;;;;;5057531;28;19924;-17
2023/03/05 13:55:13;;;;;;;;;;;15.10;80.20;;;;;;5057138;28;19909;-14
2023/03/05 13:57:41;;;;;;;;;;;15.00;80.30;;;;;;5057307;28;20285;-16
2023/03/05 14:00:24;;;;;;;;;;;15.00;80.40;;;;;;5058492;28;19954;-16
2023/03/05 14:02:51;;;;;;;;;;;15.00;80.40;;;;;;5058061;28;20282;-18
2023/03/05 14:05:16;;;;;;;;;;;15.10;80.40;;;;;;5056926;28;19916;-14
2023/03/05 14:07:45;;;;;;;;;;;15.10;80.30;;;;;;5049498;28;20054;-16
2023/03/05 14:10:29;;;;;;;;;;;15.10;80.30;;;;;;5056610;28;19909;-14
2023/03/05 14:12:58;;;;;;;;;;;15.10;80.30;;;;;;5054818;28;19909;-17
2023/03/05 14:15:34;;;;;;;;;;;15.10;80.30;;;;;;5052858;28;19908;-16
2023/03/05 14:21:06;;;;;;;;;;;15.10;80.30;;;;;;5046369;28;19920;-19
2023/03/05 14:23:42;;;;;;;;;;;15.10;80.20;;;;;;5067798;28;19913;-16
2023/03/05 14:26:16;;;;;;;;;;;15.10;80.10;;;;;;5056349;28;20379;-16
2023/03/05 14:28:42;;;;;;;;;;;15.10;80.10;;;;;;5055701;28;19909;-14